Ana Sayfa
METAR-TAF:

METAR-TAF

Havaalanları :

Yakutsk Havalimanı

Yakutsk, Rusya

Enlem: 62-01N, Boylam: 129-43E, yükseklik: 103 m

Güncel hava durumu gözlemi

Rapor saat 11:00 UTC de 26 dakika önce yapıldı.
Sakin rüzgar
Sıcaklık -41°C
Nem 65%
Basınç 1033 hPa
Görüş mesafesi: 0200 m
sis

METAR: UEEE 101100Z 00000MPS 0200 R23L/0700N FG NSC M41/M45 Q1033 R23L/490155 NOSIG RMK QFE766

Saat: 20:26 (11:26 UTC)

Tahmin

Rapor saat 08:00 UTC de 3 saat ve 26 dakika önce yapıldı.
Ayın 10'si saat 09 UTC'den ayın 11'si saat 15 UTC'ye kadar geçerli Tahmin
Rüzgar değişken yönden 2 kt
Görüş mesafesi: 0300 m
300 ft yükseklikte
sis
Geçici
ayın 10'si saat 09 UTC'den ayın 10'si saat 21 UTC'ye kadar
Görüş mesafesi: 0700 m
sis

TAF: UEEE 100800Z 1009/1115 VRB01MPS 0300 FG VV003 TXM41/1009Z TNM44/1023Z TEMPO 1009/1021 0700 FG NSC

4.000'den fazla havaalanı için hava durumu gözlemleri ve tahminleri (METAR ve TAF raporları).

Kullanılabilir istasyonlar harita üzerinde sarı ve kırmızı noktalarla gösterilir.

İstasyonun adını görmek için fareyi noktanın üzerinde gezdirin.

Sonrasında hava gözlem ve tahminlerini görmek için tıklayın.

Haritayı değiştirmek için: yaklaştırmak için siyah artı işaretli yeşil düğmeye ve uzaklaştırmak için de eksi işaretli düğmeye hızla tıklayın; bitişik haritalar için yeşil okları kullanın.


METAR-TAF: